Time;durP1;ratioP1;P1;durP2;ratioP2;P2;SDS_P1;SDS_P2;PMS_P1;PMS_P2;Temp;Humidity;BMP_temperature;BMP_pressure;BME280_temperature;BME280_humidity;BME280_pressure;Samples;Min_cycle;Max_cycle;Signal;HPM_P1;HPM_P2
2023/02/18 00:01:40;;;;;;;50.70;21.40;;;;;;;4.90;68.05;100989.34;107602;1254;98405;-65
2023/02/18 00:04:09;;;;;;;27.20;15.50;;;;;;;4.97;67.45;100993.66;107672;1255;111314;-62
2023/02/18 00:06:37;;;;;;;33.60;18.40;;;;;;;5.09;67.96;100989.02;107664;1254;109687;-63
2023/02/18 00:09:07;;;;;;;31.60;15.90;;;;;;;5.16;67.51;100993.73;107582;1255;107454;-66
2023/02/18 00:11:37;;;;;;;32.40;18.20;;;;;;;5.21;67.57;100992.56;107571;1253;97723;-61
2023/02/18 00:14:12;;;;;;;30.90;17.50;;;;;;;5.24;67.46;100995.77;107612;1254;98506;-63
2023/02/18 00:16:41;;;;;;;34.70;17.30;;;;;;;5.24;67.42;100998.23;107633;1253;111326;-63
2023/02/18 00:19:16;;;;;;;33.50;16.70;;;;;;;5.23;67.59;101003.98;107628;1254;110149;-63
2023/02/18 00:21:45;;;;;;;33.30;18.00;;;;;;;5.23;67.86;101008.61;107605;1253;108459;-63
2023/02/18 00:24:15;;;;;;;26.90;14.70;;;;;;;5.23;67.89;101007.17;107612;1254;97841;-62
2023/02/18 00:26:44;;;;;;;32.40;15.90;;;;;;;5.23;68.08;101019.45;107695;1252;97805;-63
2023/02/18 00:29:12;;;;;;;27.10;15.60;;;;;;;5.25;68.85;101017.58;107601;1254;112359;-63
2023/02/18 00:31:42;;;;;;;31.20;15.40;;;;;;;5.27;69.18;101012.11;107592;1253;110035;-62
2023/02/18 00:34:12;;;;;;;26.60;15.00;;;;;;;5.33;68.95;101013.30;107532;1254;107611;-63
2023/02/18 00:36:41;;;;;;;29.60;14.70;;;;;;;5.42;69.07;101010.82;107559;1254;97839;-62
2023/02/18 00:39:10;;;;;;;26.00;14.10;;;;;;;5.51;69.23;101010.80;107680;1255;97829;-63
2023/02/18 00:41:40;;;;;;;22.90;13.60;;;;;;;5.59;69.25;101007.24;107699;1255;110461;-62
2023/02/18 00:44:10;;;;;;;27.80;13.40;;;;;;;5.67;69.06;101003.52;107593;1254;109738;-62
2023/02/18 00:46:39;;;;;;;21.40;13.20;;;;;;;5.75;69.09;100999.67;107556;1254;108082;-63
2023/02/18 00:49:09;;;;;;;31.40;15.60;;;;;;;5.81;69.72;101003.20;107558;1253;97829;-63
2023/02/18 00:51:37;;;;;;;25.40;15.20;;;;;;;5.86;69.43;101000.57;107611;1254;97717;-63
2023/02/18 00:54:05;;;;;;;27.20;14.60;;;;;;;5.90;69.68;100995.34;107647;1254;111844;-61
2023/02/18 00:56:34;;;;;;;25.60;16.00;;;;;;;5.92;69.37;100984.13;107622;1253;109737;-61
2023/02/18 00:59:02;;;;;;;24.50;14.80;;;;;;;5.94;69.25;100971.91;107639;1252;108841;-62
2023/02/18 01:01:31;;;;;;;27.40;15.40;;;;;;;5.95;69.84;100967.38;107575;1253;97715;-62
2023/02/18 01:04:00;;;;;;;24.90;14.20;;;;;;;5.95;70.34;100962.59;107556;1256;97989;-61
2023/02/18 01:06:28;;;;;;;26.20;15.20;;;;;;;5.93;70.47;100956.30;107617;1254;111604;-61
2023/02/18 01:08:57;;;;;;;26.30;14.40;;;;;;;5.90;70.05;100955.41;107592;1253;109678;-62
2023/02/18 01:11:25;;;;;;;24.70;14.20;;;;;;;5.90;69.91;100949.74;107590;1253;108925;-62
2023/02/18 01:13:54;;;;;;;21.40;13.40;;;;;;;5.88;70.21;100943.98;107565;1254;97844;-62
2023/02/18 01:16:23;;;;;;;29.20;15.70;;;;;;;5.87;70.00;100942.41;107613;1254;97723;-62
2023/02/18 01:18:51;;;;;;;31.60;15.20;;;;;;;5.89;69.89;100936.27;107629;1254;111952;-63
2023/02/18 01:21:20;;;;;;;32.10;15.90;;;;;;;5.88;70.29;100930.46;107583;1254;110043;-60
2023/02/18 01:23:48;;;;;;;23.70;14.90;;;;;;;5.88;70.52;100923.89;107624;1253;108503;-62
2023/02/18 01:26:16;;;;;;;24.40;15.00;;;;;;;5.86;70.90;100917.96;107628;1254;98382;-61
2023/02/18 01:28:45;;;;;;;29.50;16.10;;;;;;;5.78;71.28;100913.34;107561;1254;97755;-61
2023/02/18 01:31:13;;;;;;;27.50;15.00;;;;;;;5.74;71.24;100904.50;107557;1254;112225;-64
2023/02/18 01:33:42;;;;;;;29.10;16.10;;;;;;;5.74;71.44;100899.50;107591;1253;110130;-62
2023/02/18 01:36:11;;;;;;;23.30;14.10;;;;;;;5.73;71.81;100894.06;107535;1251;107671;-62
2023/02/18 01:38:40;;;;;;;27.60;14.00;;;;;;;5.75;72.13;100891.44;107570;1254;97842;-61
2023/02/18 01:41:09;;;;;;;21.90;14.20;;;;;;;5.76;72.07;100892.27;107640;1255;98366;-63
2023/02/18 01:43:38;;;;;;;39.40;15.20;;;;;;;5.77;72.30;100882.07;107578;1253;111747;-63
2023/02/18 01:46:19;;;;;;;39.10;17.00;;;;;;;5.79;72.52;100879.08;107575;1254;110116;-61
2023/02/18 01:48:59;;;;;;;27.10;14.60;;;;;;;5.85;72.79;100871.07;107492;1254;108832;-61
2023/02/18 01:51:31;;;;;;;24.80;15.00;;;;;;;5.88;72.71;100863.91;107612;1254;97752;-61
2023/02/18 01:53:59;;;;;;;27.50;15.00;;;;;;;5.89;72.54;100862.25;107581;1254;97725;-61
2023/02/18 01:56:54;;;;;;;28.30;15.30;;;;;;;5.89;72.58;100852.58;107588;1254;111744;-61
2023/02/18 01:59:37;;;;;;;26.20;14.80;;;;;;;5.91;73.03;100853.16;107527;1254;109722;-61
2023/02/18 02:02:09;;;;;;;29.50;14.90;;;;;;;5.91;73.20;100851.23;107632;1254;107872;-61
2023/02/18 02:04:38;;;;;;;26.60;12.90;;;;;;;5.95;73.26;100849.86;107631;1254;97921;-63
2023/02/18 02:07:07;;;;;;;33.00;15.30;;;;;;;5.97;73.33;100851.86;107597;1254;97860;-63
2023/02/18 02:09:38;;;;;;;25.30;14.40;;;;;;;6.01;73.56;100853.10;107545;1252;111404;-61
2023/02/18 02:12:15;;;;;;;26.10;14.70;;;;;;;6.01;73.22;100854.73;107584;1254;110702;-62
2023/02/18 02:15:05;;;;;;;26.50;15.60;;;;;;;5.97;73.33;100850.99;107541;1254;106990;-61
2023/02/18 02:17:52;;;;;;;30.00;17.00;;;;;;;5.95;73.15;100852.70;107531;1255;97934;-62
2023/02/18 02:20:52;;;;;;;28.40;16.70;;;;;;;5.97;73.30;100854.92;107637;1254;98366;-62
2023/02/18 02:23:39;;;;;;;32.70;16.90;;;;;;;6.01;73.41;100851.14;107421;1254;111923;-62
2023/02/18 02:26:16;;;;;;;32.40;16.80;;;;;;;5.97;73.19;100842.44;107644;1256;109658;-62
2023/02/18 02:29:07;;;;;;;28.10;17.30;;;;;;;5.94;73.07;100835.14;107538;1254;108265;-60
2023/02/18 02:31:57;;;;;;;28.50;17.50;;;;;;;5.92;73.12;100830.88;107531;1254;97847;-62
2023/02/18 02:34:48;;;;;;;31.60;17.10;;;;;;;5.86;72.80;100819.54;107553;1256;97732;-62
2023/02/18 02:37:54;;;;;;;40.20;17.70;;;;;;;5.79;72.98;100824.10;107593;1255;111846;-59
2023/02/18 02:40:53;;;;;;;32.30;19.60;;;;;;;5.76;73.12;100830.88;107564;1254;109316;-62
2023/02/18 02:43:42;;;;;;;32.30;19.60;;;;;;;5.80;73.45;100832.75;107550;1255;107149;-62
2023/02/18 02:46:35;;;;;;;33.50;19.50;;;;;;;5.83;73.72;100832.16;107529;1254;97834;-62
2023/02/18 02:49:11;;;;;;;33.00;18.70;;;;;;;5.90;73.81;100825.16;107592;1256;97717;-62
2023/02/18 02:51:55;;;;;;;34.60;20.50;;;;;;;5.87;73.58;100815.73;107552;1255;112489;-60
2023/02/18 02:54:27;;;;;;;33.50;19.00;;;;;;;5.87;73.72;100816.75;107589;1254;108685;-61
2023/02/18 02:57:09;;;;;;;34.70;20.80;;;;;;;5.88;73.69;100806.92;107645;1252;108255;-61
2023/02/18 02:59:42;;;;;;;31.30;19.40;;;;;;;5.89;73.92;100806.50;107579;1254;97828;-60
2023/02/18 03:02:20;;;;;;;30.30;19.40;;;;;;;5.89;73.77;100803.65;107685;1254;98370;-61
2023/02/18 03:04:54;;;;;;;39.60;20.40;;;;;;;5.86;73.91;100806.52;107569;1254;112165;-62
2023/02/18 03:07:25;;;;;;;;;;;;;;;5.79;73.45;100809.67;107574;1254;109239;-62
2023/02/18 03:10:06;;;;;;;35.20;19.60;;;;;;;5.69;73.04;100801.81;107576;1254;108839;-62
2023/02/18 03:12:38;;;;;;;38.40;20.30;;;;;;;5.61;73.27;100801.10;107588;1254;98264;-62
2023/02/18 03:15:38;;;;;;;36.80;20.60;;;;;;;5.54;73.21;100800.29;107589;1254;98494;-62
2023/02/18 03:18:17;;;;;;;31.90;20.20;;;;;;;5.45;72.91;100806.44;107584;1256;112693;-61
2023/02/18 03:20:57;;;;;;;34.90;21.10;;;;;;;5.34;72.92;100811.03;107595;1254;109557;-61
2023/02/18 03:23:31;;;;;;;30.70;18.90;;;;;;;5.24;73.05;100814.90;107543;1256;108441;-61
2023/02/18 03:26:01;;;;;;;31.40;17.90;;;;;;;5.16;73.14;100810.08;107600;1254;97948;-62
2023/02/18 03:28:32;;;;;;;34.50;18.40;;;;;;;5.10;73.37;100812.97;107603;1254;98380;-62
2023/02/18 03:31:08;;;;;;;33.20;17.70;;;;;;;5.06;73.48;100813.61;107580;1258;111101;-60
2023/02/18 03:33:45;;;;;;;35.20;18.30;;;;;;;5.01;73.59;100807.12;107617;1254;108063;-62
2023/02/18 03:36:13;;;;;;;27.70;17.40;;;;;;;4.98;73.95;100803.96;107563;1253;108422;-62
2023/02/18 03:39:00;;;;;;;31.00;18.70;;;;;;;4.93;73.89;100809.61;107573;1254;97810;-62
2023/02/18 03:41:30;;;;;;;36.80;18.50;;;;;;;4.92;73.84;100808.04;107697;1254;97730;-61
2023/02/18 03:44:01;;;;;;;35.90;20.30;;;;;;;4.91;73.97;100806.89;107588;1254;111411;-62
2023/02/18 03:46:31;;;;;;;36.20;21.40;;;;;;;4.90;74.20;100803.39;107536;1254;109665;-63
2023/02/18 03:48:59;;;;;;;40.70;22.60;;;;;;;4.90;74.54;100794.33;107568;1254;108704;-63
2023/02/18 03:51:28;;;;;;;39.60;23.20;;;;;;;4.91;74.95;100792.34;107597;1254;97933;-63
2023/02/18 03:53:56;;;;;;;40.50;22.30;;;;;;;4.91;75.17;100804.21;107601;1254;98472;-61
2023/02/18 03:56:25;;;;;;;37.10;22.30;;;;;;;4.92;75.22;100799.93;107582;1254;111764;-61
2023/02/18 03:58:53;;;;;;;49.60;24.00;;;;;;;4.93;75.46;100795.94;107566;1254;108266;-62
2023/02/18 04:01:22;;;;;;;38.60;21.60;;;;;;;4.95;75.73;100797.90;107566;1254;108638;-62
2023/02/18 04:03:50;;;;;;;31.70;18.50;;;;;;;4.97;75.78;100795.88;107622;1254;97812;-62
2023/02/18 04:06:19;;;;;;;32.60;18.90;;;;;;;4.98;75.90;100794.52;107661;1255;98360;-62
2023/02/18 04:08:48;;;;;;;35.50;17.40;;;;;;;4.99;76.27;100796.23;107537;1253;112641;-63
2023/02/18 04:11:16;;;;;;;34.00;18.40;;;;;;;4.99;76.06;100795.16;107583;1256;110215;-62
2023/02/18 04:13:45;;;;;;;41.60;19.80;;;;;;;5.01;76.31;100785.79;107567;1255;109704;-62
2023/02/18 04:16:13;;;;;;;85.40;29.30;;;;;;;5.03;76.12;100785.86;107608;1256;97829;-61
2023/02/18 04:18:41;;;;;;;96.30;31.00;;;;;;;5.04;76.35;100790.45;107668;1254;97804;-61
2023/02/18 04:21:10;;;;;;;83.00;30.00;;;;;;;5.06;76.60;100797.61;107565;1253;112178;-62
2023/02/18 04:23:38;;;;;;;71.70;30.00;;;;;;;5.08;76.57;100778.10;107634;1255;109854;-60
2023/02/18 04:26:06;;;;;;;67.70;27.10;;;;;;;5.11;76.68;100769.48;107613;1254;108276;-62
2023/02/18 04:28:35;;;;;;;26.50;16.10;;;;;;;5.15;76.91;100764.66;107617;1254;97826;-61
2023/02/18 04:31:03;;;;;;;34.00;17.40;;;;;;;5.19;77.60;100768.09;107618;1254;98469;-61
2023/02/18 04:33:32;;;;;;;91.30;34.70;;;;;;;5.24;77.30;100762.80;107503;1256;111271;-62
2023/02/18 04:36:00;;;;;;;69.30;29.60;;;;;;;5.26;77.36;100750.24;107579;1254;109333;-63
2023/02/18 04:38:29;;;;;;;53.40;23.40;;;;;;;5.25;76.90;100747.63;107546;1254;108082;-61
2023/02/18 04:40:57;;;;;;;65.00;28.90;;;;;;;5.24;76.90;100746.25;107618;1256;97832;-60
2023/02/18 04:43:26;;;;;;;99.60;35.10;;;;;;;5.24;77.24;100741.80;107551;1254;97866;-62
2023/02/18 04:45:55;;;;;;;73.00;29.10;;;;;;;5.22;77.31;100742.48;107623;1255;111283;-61
2023/02/18 04:48:24;;;;;;;68.90;27.30;;;;;;;5.17;77.13;100738.16;107611;1257;109825;-62
2023/02/18 04:50:52;;;;;;;72.10;27.70;;;;;;;5.15;77.27;100729.47;107615;1254;107786;-61
2023/02/18 04:53:21;;;;;;;46.10;21.90;;;;;;;5.15;77.18;100731.35;107533;1254;97836;-62
2023/02/18 04:55:53;;;;;;;45.60;20.10;;;;;;;5.14;77.30;100735.04;107572;1254;97834;-62
2023/02/18 04:58:22;;;;;;;39.30;19.50;;;;;;;5.13;77.35;100726.90;107643;1255;111986;-62
2023/02/18 05:00:52;;;;;;;42.80;19.70;;;;;;;5.12;77.15;100719.70;107631;1254;110859;-64
2023/02/18 05:03:21;;;;;;;30.50;17.20;;;;;;;5.11;77.15;100722.26;107626;1254;108179;-62
2023/02/18 05:05:49;;;;;;;24.30;14.80;;;;;;;5.12;77.28;100720.21;107561;1256;97950;-62
2023/02/18 05:08:17;;;;;;;31.00;17.00;;;;;;;5.13;77.67;100723.18;107595;1255;97700;-62
2023/02/18 05:10:46;;;;;;;34.10;18.30;;;;;;;5.14;77.79;100716.15;107638;1257;110389;-61
2023/02/18 05:13:14;;;;;;;37.20;16.80;;;;;;;5.15;77.45;100718.02;107588;1254;110952;-62
2023/02/18 05:15:43;;;;;;;28.60;16.60;;;;;;;5.16;77.47;100718.69;107550;1254;108166;-61
2023/02/18 05:18:11;;;;;;;28.30;15.80;;;;;;;5.16;77.71;100715.30;107572;1256;97931;-62
2023/02/18 05:20:40;;;;;;;27.30;15.80;;;;;;;5.17;77.40;100718.27;107568;1257;98040;-62
2023/02/18 05:23:08;;;;;;;21.20;13.50;;;;;;;5.15;77.17;100724.47;107550;1254;111797;-64
2023/02/18 05:25:36;;;;;;;26.90;15.00;;;;;;;5.14;77.23;100715.63;107612;1252;109093;-61
2023/02/18 05:28:04;;;;;;;25.70;13.60;;;;;;;5.15;77.54;100706.14;107661;1253;107798;-60
2023/02/18 05:30:33;;;;;;;24.30;13.80;;;;;;;5.20;78.01;100709.21;107556;1254;97732;-62
2023/02/18 05:33:01;;;;;;;25.00;14.50;;;;;;;5.25;78.36;100708.32;107573;1254;97738;-61
2023/02/18 05:35:30;;;;;;;31.00;15.30;;;;;;;5.31;78.41;100702.71;107564;1252;111236;-62
2023/02/18 05:37:58;;;;;;;21.30;10.90;;;;;;;5.36;78.24;100701.39;107543;1257;109711;-62
2023/02/18 05:40:26;;;;;;;25.00;14.40;;;;;;;5.40;78.47;100702.71;107575;1256;108198;-62
2023/02/18 05:42:55;;;;;;;14.10;9.90;;;;;;;5.43;78.74;100704.08;107541;1255;97576;-62
2023/02/18 05:45:24;;;;;;;18.50;11.00;;;;;;;5.54;79.06;100705.46;107564;1254;97707;-62
2023/02/18 05:47:52;;;;;;;24.90;14.70;;;;;;;5.65;78.94;100711.85;107609;1254;112374;-62
2023/02/18 05:50:20;;;;;;;22.80;15.00;;;;;;;5.72;78.58;100719.42;107570;1254;108445;-61
2023/02/18 05:52:49;;;;;;;20.40;13.60;;;;;;;5.80;78.64;100729.67;107619;1258;107506;-62
2023/02/18 05:55:17;;;;;;;17.00;11.00;;;;;;;5.86;78.35;100728.41;107660;1254;97850;-64
2023/02/18 05:57:46;;;;;;;23.10;13.00;;;;;;;5.93;78.53;100725.95;107579;1254;97787;-61
2023/02/18 06:00:16;;;;;;;13.20;9.20;;;;;;;6.03;78.53;100727.06;107542;1256;111701;-62
2023/02/18 06:02:44;;;;;;;17.50;10.50;;;;;;;6.11;78.55;100730.25;107600;1254;109754;-62
2023/02/18 06:05:13;;;;;;;28.80;16.90;;;;;;;6.21;78.52;100728.98;107540;1254;107068;-61
2023/02/18 06:07:41;;;;;;;13.00;8.70;;;;;;;6.32;78.35;100723.94;107558;1254;97934;-61
2023/02/18 06:10:10;;;;;;;18.20;9.00;;;;;;;6.46;78.09;100724.38;107538;1256;97936;-63
2023/02/18 06:12:38;;;;;;;15.70;7.60;;;;;;;6.60;77.69;100721.45;107515;1257;111815;-62
2023/02/18 06:15:07;;;;;;;9.70;6.50;;;;;;;6.72;77.17;100712.91;107614;1254;110043;-62
2023/02/18 06:17:35;;;;;;;11.40;7.80;;;;;;;6.83;76.75;100704.29;107628;1253;108623;-63
2023/02/18 06:20:04;;;;;;;13.70;6.60;;;;;;;6.92;76.20;100710.53;107538;1256;97917;-62
2023/02/18 06:22:33;;;;;;;19.70;7.90;;;;;;;7.00;75.88;100708.73;107595;1255;97720;-63
2023/02/18 06:25:01;;;;;;;15.50;10.10;;;;;;;7.05;75.81;100714.20;107663;1256;111729;-63
2023/02/18 06:27:29;;;;;;;13.90;8.70;;;;;;;7.09;75.48;100711.80;107622;1254;110940;-63
2023/02/18 06:29:57;;;;;;;16.80;8.10;;;;;;;7.09;75.05;100710.17;107628;1254;108169;-64
2023/02/18 06:32:26;;;;;;;16.30;8.10;;;;;;;7.11;74.92;100707.52;107549;1254;97822;-63
2023/02/18 06:34:54;;;;;;;13.00;7.60;;;;;;;7.14;74.69;100699.29;107582;1254;97742;-64
2023/02/18 06:37:22;;;;;;;10.70;7.30;;;;;;;7.19;74.23;100690.73;107632;1254;111747;-62
2023/02/18 06:39:51;;;;;;;13.90;8.00;;;;;;;7.23;74.20;100693.46;107588;1254;109811;-64
2023/02/18 06:42:20;;;;;;;14.70;7.90;;;;;;;7.28;73.92;100707.02;107534;1253;108600;-63
2023/02/18 06:44:48;;;;;;;10.90;7.40;;;;;;;7.32;73.92;100714.86;107532;1257;97851;-63
2023/02/18 06:47:17;;;;;;;10.10;6.80;;;;;;;7.38;73.82;100716.94;107690;1253;98407;-62
2023/02/18 06:49:45;;;;;;;14.50;7.40;;;;;;;7.45;73.66;100717.48;107571;1254;112274;-63
2023/02/18 06:52:14;;;;;;;11.10;7.20;;;;;;;7.53;73.35;100713.84;107613;1254;109188;-62
2023/02/18 06:54:43;;;;;;;15.00;7.40;;;;;;;7.59;72.86;100712.85;107599;1254;108249;-62
2023/02/18 06:57:11;;;;;;;13.70;7.90;;;;;;;7.65;72.76;100708.29;107643;1255;97822;-62
2023/02/18 06:59:39;;;;;;;18.20;7.70;;;;;;;7.70;72.44;100705.19;107630;1254;98011;-63
2023/02/18 07:02:11;;;;;;;23.80;8.50;;;;;;;7.79;72.46;100698.81;107593;1254;112034;-62
2023/02/18 07:04:39;;;;;;;17.50;8.30;;;;;;;7.87;72.82;100696.73;107624;1257;109989;-62
2023/02/18 07:07:08;;;;;;;21.90;10.10;;;;;;;7.94;72.93;100699.04;107621;1253;108427;-63
2023/02/18 07:09:36;;;;;;;25.30;10.30;;;;;;;7.99;73.31;100701.34;107603;1253;97957;-63
2023/02/18 07:12:06;;;;;;;18.40;9.20;;;;;;;7.99;73.37;100705.08;107588;1254;97710;-62
2023/02/18 07:14:34;;;;;;;17.10;9.10;;;;;;;8.01;73.47;100707.48;107676;1252;112181;-62
2023/02/18 07:17:02;;;;;;;15.70;10.20;;;;;;;7.98;73.26;100706.27;107610;1254;109648;-63
2023/02/18 07:19:30;;;;;;;22.20;10.10;;;;;;;7.95;73.30;100704.13;107573;1257;107971;-62
2023/02/18 07:22:00;;;;;;;21.10;10.50;;;;;;;7.94;73.27;100698.67;107559;1254;97853;-62
2023/02/18 07:24:28;;;;;;;19.80;10.50;;;;;;;7.92;73.53;100688.20;107594;1254;97904;-65
2023/02/18 07:26:57;;;;;;;12.90;7.50;;;;;;;7.91;73.49;100685.92;107606;1254;110829;-62
2023/02/18 07:29:25;;;;;;;16.00;7.00;;;;;;;7.92;73.38;100689.89;107645;1251;109224;-62
2023/02/18 07:31:53;;;;;;;19.10;9.40;;;;;;;7.97;73.10;100690.05;107649;1253;106736;-63
2023/02/18 07:34:22;;;;;;;20.80;10.20;;;;;;;8.04;73.31;100686.64;107655;1251;97823;-63
2023/02/18 07:36:50;;;;;;;24.50;11.00;;;;;;;8.10;73.59;100695.98;107651;1253;97835;-62
2023/02/18 07:39:19;;;;;;;23.60;11.40;;;;;;;8.15;73.46;100691.71;107620;1257;111308;-63
2023/02/18 07:41:48;;;;;;;13.10;9.20;;;;;;;8.20;73.54;100689.52;107544;1254;109847;-62
2023/02/18 07:44:17;;;;;;;21.10;9.20;;;;;;;8.26;73.64;100687.83;107647;1254;108204;-63
2023/02/18 07:46:45;;;;;;;20.50;9.80;;;;;;;8.31;73.85;100689.38;107532;1251;97835;-63
2023/02/18 07:49:15;;;;;;;15.20;9.30;;;;;;;8.43;74.09;100684.29;107520;1254;97732;-63
2023/02/18 07:51:47;;;;;;;14.90;9.50;;;;;;;8.55;73.97;100684.02;107641;1254;112297;-63
2023/02/18 07:54:15;;;;;;;13.50;8.90;;;;;;;8.71;74.28;100679.17;107590;1254;108735;-63
2023/02/18 07:56:45;;;;;;;12.20;7.60;;;;;;;8.93;74.32;100679.75;107594;1254;106752;-63
2023/02/18 07:59:14;;;;;;;16.30;9.00;;;;;;;9.06;74.10;100678.46;107617;1254;97867;-62
2023/02/18 08:01:43;;;;;;;15.70;8.00;;;;;;;9.19;73.74;100676.27;107602;1255;97876;-64
2023/02/18 08:04:12;;;;;;;13.40;8.10;;;;;;;9.33;73.00;100671.38;107642;1253;111487;-62
2023/02/18 08:06:45;;;;;;;14.70;9.30;;;;;;;9.46;71.96;100669.73;107632;1254;110730;-63
2023/02/18 08:09:14;;;;;;;16.40;7.70;;;;;;;9.56;70.01;100671.00;107584;1254;108523;-64
2023/02/18 08:11:43;;;;;;;13.10;8.40;;;;;;;9.70;68.02;100670.52;107634;1253;98506;-63
2023/02/18 08:14:12;;;;;;;14.20;7.80;;;;;;;9.85;68.34;100666.04;107613;1255;97721;-63
2023/02/18 08:16:40;;;;;;;12.70;7.00;;;;;;;10.00;67.59;100667.77;107601;1255;112783;-65
2023/02/18 08:19:08;;;;;;;13.40;6.90;;;;;;;10.19;66.47;100667.22;107613;1254;110082;-63
2023/02/18 08:21:37;;;;;;;13.70;6.60;;;;;;;10.40;65.95;100662.48;107604;1256;108193;-62
2023/02/18 08:24:08;;;;;;;14.10;7.30;;;;;;;10.62;65.64;100662.89;107588;1253;97935;-63
2023/02/18 08:26:36;;;;;;;17.10;7.30;;;;;;;10.83;65.97;100666.48;107590;1253;97717;-62
2023/02/18 08:29:04;;;;;;;10.90;6.80;;;;;;;10.96;64.61;100666.42;107539;1254;112275;-62
2023/02/18 08:31:33;;;;;;;11.10;7.00;;;;;;;10.99;64.48;100662.40;107584;1254;108928;-62
2023/02/18 08:34:02;;;;;;;11.40;7.20;;;;;;;10.99;64.78;100661.89;107585;1253;108967;-63
2023/02/18 08:36:31;;;;;;;10.50;6.50;;;;;;;11.00;64.82;100656.40;107597;1254;97969;-63
2023/02/18 08:38:59;;;;;;;8.60;5.80;;;;;;;11.01;64.29;100652.90;107674;1254;97935;-62
2023/02/18 08:41:28;;;;;;;10.00;5.30;;;;;;;10.99;63.44;100651.96;107669;1254;112472;-62
2023/02/18 08:43:56;;;;;;;14.90;6.70;;;;;;;10.95;63.43;100650.55;107601;1254;110858;-62
2023/02/18 08:46:25;;;;;;;11.70;7.10;;;;;;;10.90;63.05;100652.27;107565;1254;107419;-61
2023/02/18 08:49:04;;;;;;;17.60;7.10;;;;;;;10.87;62.94;100661.91;107538;1254;97819;-62
2023/02/18 08:51:33;;;;;;;14.50;7.20;;;;;;;10.84;63.33;100659.77;107668;1254;98356;-62
2023/02/18 08:54:02;;;;;;;11.30;7.10;;;;;;;10.87;63.28;100657.52;107658;1254;111294;-62
2023/02/18 08:56:31;;;;;;;14.20;7.50;;;;;;;10.91;63.27;100663.27;107548;1253;110932;-62
2023/02/18 08:58:59;;;;;;;23.70;12.70;;;;;;;10.99;62.98;100658.61;107594;1256;106696;-63
2023/02/18 09:01:28;;;;;;;25.90;14.00;;;;;;;11.06;62.00;100664.39;107592;1254;97841;-61
2023/02/18 09:03:57;;;;;;;19.80;9.20;;;;;;;11.16;62.19;100663.47;107703;1254;97707;-62
2023/02/18 09:06:26;;;;;;;12.40;7.70;;;;;;;11.29;61.62;100665.20;107706;1254;112527;-64
2023/02/18 09:08:54;;;;;;;14.80;7.60;;;;;;;11.45;60.64;100658.88;107571;1253;108505;-63
2023/02/18 09:11:23;;;;;;;11.50;7.60;;;;;;;11.80;60.97;100646.42;107603;1256;107133;-62
2023/02/18 09:13:51;;;;;;;15.10;7.70;;;;;;;12.39;60.76;100646.67;107663;1254;98020;-60
2023/02/18 09:16:20;;;;;;;20.70;8.60;;;;;;;12.85;59.40;100644.49;107688;1254;98351;-62
2023/02/18 09:18:49;;;;;;;18.60;7.40;;;;;;;13.15;59.24;100644.55;107706;1253;111914;-62
2023/02/18 09:21:19;;;;;;;10.00;5.80;;;;;;;13.37;58.62;100644.86;107707;1254;110323;-62
2023/02/18 09:23:49;;;;;;;14.40;6.80;;;;;;;13.48;57.28;100639.25;107639;1253;108047;-61
2023/02/18 09:26:23;;;;;;;18.50;5.40;;;;;;;13.60;55.58;100647.41;107547;1254;97840;-62
2023/02/18 09:28:54;;;;;;;18.70;6.10;;;;;;;13.91;55.11;100641.50;107606;1254;97854;-62
2023/02/18 09:31:25;;;;;;;10.60;4.70;;;;;;;14.51;53.04;100642.84;107582;1254;111437;-62
2023/02/18 09:34:00;;;;;;;6.20;3.10;;;;;;;14.98;49.51;100640.58;107478;1254;109448;-63
2023/02/18 09:36:29;;;;;;;8.10;3.80;;;;;;;15.26;49.40;100643.14;107565;1254;109351;-62
2023/02/18 09:38:58;;;;;;;4.80;3.30;;;;;;;15.69;47.57;100634.71;107577;1253;97791;-63
2023/02/18 09:41:33;;;;;;;4.10;3.10;;;;;;;15.68;46.95;100637.41;107685;1254;98383;-63
2023/02/18 09:44:22;;;;;;;10.80;2.80;;;;;;;15.50;46.42;100641.05;107643;1254;112277;-62
2023/02/18 09:47:01;;;;;;;4.60;2.20;;;;;;;15.32;46.89;100635.56;107606;1254;108819;-62
2023/02/18 09:49:39;;;;;;;7.40;3.10;;;;;;;15.09;45.92;100633.05;107560;1254;108765;-63
2023/02/18 09:52:16;;;;;;;5.10;2.00;;;;;;;14.97;46.36;100638.08;107600;1254;97861;-63
2023/02/18 09:54:45;;;;;;;1.70;1.40;;;;;;;14.86;45.70;100638.98;107609;1254;98337;-63
2023/02/18 09:57:34;;;;;;;3.90;2.00;;;;;;;15.17;45.49;100637.83;107645;1254;111721;-63
2023/02/18 10:00:11;;;;;;;3.30;2.20;;;;;;;15.54;44.77;100629.02;107620;1254;109519;-64
2023/02/18 10:02:54;;;;;;;8.80;1.80;;;;;;;15.77;44.38;100624.50;107540;1256;108255;-62
2023/02/18 10:05:25;;;;;;;5.30;2.10;;;;;;;16.03;43.81;100622.67;107626;1255;97828;-63
2023/02/18 10:08:00;;;;;;;2.70;1.60;;;;;;;16.22;43.44;100623.84;107610;1254;98444;-62
2023/02/18 10:10:34;;;;;;;4.40;1.60;;;;;;;16.64;42.76;100621.73;107599;1254;111878;-62
2023/02/18 10:13:03;;;;;;;9.80;2.00;;;;;;;16.98;42.11;100622.30;107641;1254;109254;-62
2023/02/18 10:15:32;;;;;;;4.20;1.60;;;;;;;17.50;40.32;100622.01;107646;1253;107807;-62
2023/02/18 10:18:01;;;;;;;2.70;1.90;;;;;;;18.04;39.86;100620.04;107594;1253;97807;-63
2023/02/18 10:20:32;;;;;;;5.50;2.10;;;;;;;18.25;39.44;100626.35;107642;1251;97711;-63
2023/02/18 10:23:04;;;;;;;2.40;1.70;;;;;;;18.15;38.07;100625.34;107696;1256;112471;-63
2023/02/18 10:25:37;;;;;;;3.00;1.70;;;;;;;18.39;37.66;100628.98;107533;1253;108286;-62
2023/02/18 10:28:05;;;;;;;5.50;1.40;;;;;;;18.80;36.74;100621.81;107509;1254;108226;-62
2023/02/18 10:30:44;;;;;;;2.30;1.80;;;;;;;19.24;35.90;100616.86;107631;1254;97885;-64
2023/02/18 10:33:33;;;;;;;3.30;1.70;;;;;;;19.58;35.03;100623.52;107593;1253;98395;-64
2023/02/18 10:36:20;;;;;;;7.00;2.60;;;;;;;20.15;35.23;100609.34;107596;1254;111443;-63
2023/02/18 10:39:08;;;;;;;4.30;1.70;;;;;;;20.77;34.14;100606.96;107618;1251;109597;-63
2023/02/18 10:42:00;;;;;;;7.60;1.60;;;;;;;21.26;33.30;100609.95;107572;1256;109090;-61
2023/02/18 10:44:51;;;;;;;2.90;1.40;;;;;;;20.89;32.43;100606.02;107632;1251;97739;-62
2023/02/18 10:47:26;;;;;;;6.10;1.50;;;;;;;20.89;32.53;100609.77;106880;1251;981716;-62
2023/02/18 10:50:11;;;;;;;3.60;1.10;;;;;;;20.51;32.26;100616.07;107650;1251;111262;-62
2023/02/18 10:52:43;;;;;;;6.50;1.60;;;;;;;20.46;33.05;100604.98;107691;1251;110457;-62
2023/02/18 10:55:17;;;;;;;4.00;2.10;;;;;;;20.81;33.04;100602.08;107600;1251;108747;-62
2023/02/18 10:57:53;;;;;;;10.40;2.70;;;;;;;20.50;33.40;100594.81;107685;1253;97832;-60
2023/02/18 11:00:26;;;;;;;2.70;1.70;;;;;;;20.90;33.99;100590.44;107705;1251;98354;-63
2023/02/18 11:03:11;;;;;;;1.50;1.40;;;;;;;21.47;32.09;100589.43;107689;1254;112412;-62
2023/02/18 11:05:40;;;;;;;2.20;1.30;;;;;;;21.92;31.25;100582.77;107642;1254;110155;-61
2023/02/18 11:08:13;;;;;;;1.60;1.20;;;;;;;22.50;30.42;100575.23;107592;1254;108678;-62
2023/02/18 11:10:45;;;;;;;6.20;1.50;;;;;;;22.38;31.45;100576.81;107546;1253;98481;-63
2023/02/18 11:13:25;;;;;;;3.70;1.30;;;;;;;22.72;30.91;100573.79;107589;1253;97851;-62
2023/02/18 11:16:00;;;;;;;2.50;1.60;;;;;;;22.41;30.28;100566.75;107579;1254;111961;-62
2023/02/18 11:18:47;;;;;;;1.90;1.20;;;;;;;21.73;30.78;100573.21;107581;1251;109724;-63
2023/02/18 11:21:35;;;;;;;4.60;1.70;;;;;;;20.76;30.37;100582.99;107458;1254;108369;-62
2023/02/18 11:24:09;;;;;;;2.90;2.00;;;;;;;19.80;30.47;100574.45;107575;1254;97711;-63
2023/02/18 11:26:39;;;;;;;3.40;1.30;;;;;;;19.29;31.12;100576.94;107478;1253;97911;-63
2023/02/18 11:29:23;;;;;;;5.60;2.30;;;;;;;19.44;30.65;100576.04;107624;1253;110425;-62